sensor_id;sensor_type;location;lat;lon;timestamp;temperature;humidity
70170;DHT22;57543;45.442;9.212;2023-04-03T00:01:09;15.96;54.26
70170;DHT22;57543;45.442;9.212;2023-04-03T00:04:13;15.98;54.22
70170;DHT22;57543;45.442;9.212;2023-04-03T00:07:16;16.00;54.30
70170;DHT22;57543;45.442;9.212;2023-04-03T00:10:21;16.07;53.93
70170;DHT22;57543;45.442;9.212;2023-04-03T00:13:25;16.01;53.94
70170;DHT22;57543;45.442;9.212;2023-04-03T00:16:29;16.05;54.23
70170;DHT22;57543;45.442;9.212;2023-04-03T00:19:33;16.03;54.36
70170;DHT22;57543;45.442;9.212;2023-04-03T00:22:36;16.00;54.74
70170;DHT22;57543;45.442;9.212;2023-04-03T00:25:40;15.98;54.81
70170;DHT22;57543;45.442;9.212;2023-04-03T00:28:44;15.91;54.86
70170;DHT22;57543;45.442;9.212;2023-04-03T00:31:50;15.83;55.17
70170;DHT22;57543;45.442;9.212;2023-04-03T00:34:53;15.80;55.11
70170;DHT22;57543;45.442;9.212;2023-04-03T00:37:57;15.80;55.18
70170;DHT22;57543;45.442;9.212;2023-04-03T00:41:01;15.79;55.20
70170;DHT22;57543;45.442;9.212;2023-04-03T00:44:22;15.76;55.02
70170;DHT22;57543;45.442;9.212;2023-04-03T00:47:26;15.73;55.19
70170;DHT22;57543;45.442;9.212;2023-04-03T00:50:30;15.74;54.88
70170;DHT22;57543;45.442;9.212;2023-04-03T00:53:39;15.74;54.79
70170;DHT22;57543;45.442;9.212;2023-04-03T00:56:44;15.74;54.86
70170;DHT22;57543;45.442;9.212;2023-04-03T00:59:50;15.71;55.22
70170;DHT22;57543;45.442;9.212;2023-04-03T01:02:55;15.69;55.31
70170;DHT22;57543;45.442;9.212;2023-04-03T01:05:59;15.67;55.02
70170;DHT22;57543;45.442;9.212;2023-04-03T01:09:04;15.70;55.08
70170;DHT22;57543;45.442;9.212;2023-04-03T01:12:23;15.80;54.75
70170;DHT22;57543;45.442;9.212;2023-04-03T01:15:28;15.87;54.49
70170;DHT22;57543;45.442;9.212;2023-04-03T01:18:39;15.89;54.24
70170;DHT22;57543;45.442;9.212;2023-04-03T01:24:50;15.94;53.84
70170;DHT22;57543;45.442;9.212;2023-04-03T01:27:57;15.83;53.45
70170;DHT22;57543;45.442;9.212;2023-04-03T01:34:28;15.50;53.91
70170;DHT22;57543;45.442;9.212;2023-04-03T01:37:33;15.41;54.22
70170;DHT22;57543;45.442;9.212;2023-04-03T01:40:36;15.36;54.22
70170;DHT22;57543;45.442;9.212;2023-04-03T01:43:40;15.34;54.29
70170;DHT22;57543;45.442;9.212;2023-04-03T01:46:44;15.38;54.23
70170;DHT22;57543;45.442;9.212;2023-04-03T01:49:48;15.42;54.10
70170;DHT22;57543;45.442;9.212;2023-04-03T01:52:52;15.35;54.23
70170;DHT22;57543;45.442;9.212;2023-04-03T01:55:55;15.27;54.44
70170;DHT22;57543;45.442;9.212;2023-04-03T01:58:59;15.24;54.39
70170;DHT22;57543;45.442;9.212;2023-04-03T02:02:02;15.24;54.26
70170;DHT22;57543;45.442;9.212;2023-04-03T02:05:07;15.36;54.05
70170;DHT22;57543;45.442;9.212;2023-04-03T02:08:10;15.27;54.49
70170;DHT22;57543;45.442;9.212;2023-04-03T02:11:14;15.28;54.54
70170;DHT22;57543;45.442;9.212;2023-04-03T02:14:18;15.21;54.52
70170;DHT22;57543;45.442;9.212;2023-04-03T02:17:22;15.14;54.48
70170;DHT22;57543;45.442;9.212;2023-04-03T02:20:25;15.08;54.87
70170;DHT22;57543;45.442;9.212;2023-04-03T02:23:29;15.05;55.31
70170;DHT22;57543;45.442;9.212;2023-04-03T02:26:33;14.90;55.58
70170;DHT22;57543;45.442;9.212;2023-04-03T02:29:37;14.83;55.85
70170;DHT22;57543;45.442;9.212;2023-04-03T02:32:43;14.77;55.96
70170;DHT22;57543;45.442;9.212;2023-04-03T02:35:47;14.75;56.01
70170;DHT22;57543;45.442;9.212;2023-04-03T02:38:57;14.76;56.01
70170;DHT22;57543;45.442;9.212;2023-04-03T02:42:01;14.70;56.17
70170;DHT22;57543;45.442;9.212;2023-04-03T02:45:06;14.68;56.39
70170;DHT22;57543;45.442;9.212;2023-04-03T02:48:10;14.63;56.60
70170;DHT22;57543;45.442;9.212;2023-04-03T02:51:14;14.63;56.51
70170;DHT22;57543;45.442;9.212;2023-04-03T02:54:17;14.66;56.35
70170;DHT22;57543;45.442;9.212;2023-04-03T02:57:25;14.56;56.83
70170;DHT22;57543;45.442;9.212;2023-04-03T03:00:29;14.52;56.91
70170;DHT22;57543;45.442;9.212;2023-04-03T03:03:33;14.49;57.11
70170;DHT22;57543;45.442;9.212;2023-04-03T03:06:36;14.53;57.25
70170;DHT22;57543;45.442;9.212;2023-04-03T03:09:40;14.45;57.43
70170;DHT22;57543;45.442;9.212;2023-04-03T03:12:44;14.48;57.37
70170;DHT22;57543;45.442;9.212;2023-04-03T03:15:48;14.38;57.58
70170;DHT22;57543;45.442;9.212;2023-04-03T03:18:51;14.39;57.44
70170;DHT22;57543;45.442;9.212;2023-04-03T03:21:55;14.34;57.34
70170;DHT22;57543;45.442;9.212;2023-04-03T03:24:59;14.39;57.12
70170;DHT22;57543;45.442;9.212;2023-04-03T03:28:04;14.38;57.28
70170;DHT22;57543;45.442;9.212;2023-04-03T03:31:09;14.38;57.05
70170;DHT22;57543;45.442;9.212;2023-04-03T03:34:15;14.36;57.13
70170;DHT22;57543;45.442;9.212;2023-04-03T03:37:19;14.31;57.15
70170;DHT22;57543;45.442;9.212;2023-04-03T03:40:22;14.34;57.07
70170;DHT22;57543;45.442;9.212;2023-04-03T03:43:26;14.38;56.86
70170;DHT22;57543;45.442;9.212;2023-04-03T03:46:31;14.38;56.53
70170;DHT22;57543;45.442;9.212;2023-04-03T03:49:34;14.35;56.48
70170;DHT22;57543;45.442;9.212;2023-04-03T03:52:38;14.31;56.95
70170;DHT22;57543;45.442;9.212;2023-04-03T03:55:42;14.36;57.18
70170;DHT22;57543;45.442;9.212;2023-04-03T03:58:47;14.39;57.43
70170;DHT22;57543;45.442;9.212;2023-04-03T04:01:51;14.32;57.65
70170;DHT22;57543;45.442;9.212;2023-04-03T04:04:55;14.32;57.78
70170;DHT22;57543;45.442;9.212;2023-04-03T04:07:59;14.34;56.81
70170;DHT22;57543;45.442;9.212;2023-04-03T04:11:03;14.29;56.52
70170;DHT22;57543;45.442;9.212;2023-04-03T04:14:08;14.24;56.35
70170;DHT22;57543;45.442;9.212;2023-04-03T04:17:14;14.18;56.78
70170;DHT22;57543;45.442;9.212;2023-04-03T04:20:18;14.06;57.27
70170;DHT22;57543;45.442;9.212;2023-04-03T04:23:24;13.91;57.64
70170;DHT22;57543;45.442;9.212;2023-04-03T04:26:28;13.89;57.64
70170;DHT22;57543;45.442;9.212;2023-04-03T04:29:32;13.79;58.02
70170;DHT22;57543;45.442;9.212;2023-04-03T04:32:39;13.79;58.32
70170;DHT22;57543;45.442;9.212;2023-04-03T04:35:43;13.87;58.32
70170;DHT22;57543;45.442;9.212;2023-04-03T04:38:48;13.83;58.53
70170;DHT22;57543;45.442;9.212;2023-04-03T04:41:52;13.84;58.66
70170;DHT22;57543;45.442;9.212;2023-04-03T04:44:56;13.83;58.91
70170;DHT22;57543;45.442;9.212;2023-04-03T04:48:00;13.74;59.15
70170;DHT22;57543;45.442;9.212;2023-04-03T04:51:04;13.66;59.22
70170;DHT22;57543;45.442;9.212;2023-04-03T04:54:08;13.74;59.01
70170;DHT22;57543;45.442;9.212;2023-04-03T04:57:12;13.77;59.20
70170;DHT22;57543;45.442;9.212;2023-04-03T05:00:16;13.73;59.23
70170;DHT22;57543;45.442;9.212;2023-04-03T05:03:20;13.65;59.73
70170;DHT22;57543;45.442;9.212;2023-04-03T05:06:24;13.59;59.86
70170;DHT22;57543;45.442;9.212;2023-04-03T05:09:28;13.67;59.64
70170;DHT22;57543;45.442;9.212;2023-04-03T05:12:32;13.61;59.75
70170;DHT22;57543;45.442;9.212;2023-04-03T05:15:38;13.58;59.86
70170;DHT22;57543;45.442;9.212;2023-04-03T05:18:42;13.62;59.60
70170;DHT22;57543;45.442;9.212;2023-04-03T05:21:52;13.62;59.70
70170;DHT22;57543;45.442;9.212;2023-04-03T05:24:56;13.70;59.45
70170;DHT22;57543;45.442;9.212;2023-04-03T05:28:01;13.63;59.51
70170;DHT22;57543;45.442;9.212;2023-04-03T05:31:04;13.67;59.24
70170;DHT22;57543;45.442;9.212;2023-04-03T05:34:12;13.65;59.49
70170;DHT22;57543;45.442;9.212;2023-04-03T05:37:17;13.76;59.46
70170;DHT22;57543;45.442;9.212;2023-04-03T05:40:20;13.81;59.05
70170;DHT22;57543;45.442;9.212;2023-04-03T05:43:28;13.69;59.28
70170;DHT22;57543;45.442;9.212;2023-04-03T05:46:32;13.65;58.97
70170;DHT22;57543;45.442;9.212;2023-04-03T05:49:39;13.72;58.81
70170;DHT22;57543;45.442;9.212;2023-04-03T05:52:47;13.72;58.74
70170;DHT22;57543;45.442;9.212;2023-04-03T05:55:52;13.72;58.87
70170;DHT22;57543;45.442;9.212;2023-04-03T05:58:58;13.80;58.64
70170;DHT22;57543;45.442;9.212;2023-04-03T06:02:02;13.93;58.03
70170;DHT22;57543;45.442;9.212;2023-04-03T06:05:06;13.61;57.63
70170;DHT22;57543;45.442;9.212;2023-04-03T06:08:11;13.51;58.47
70170;DHT22;57543;45.442;9.212;2023-04-03T06:11:16;13.46;58.71
70170;DHT22;57543;45.442;9.212;2023-04-03T06:14:19;13.61;58.70
70170;DHT22;57543;45.442;9.212;2023-04-03T06:17:23;13.56;58.76
70170;DHT22;57543;45.442;9.212;2023-04-03T06:20:26;13.67;58.80
70170;DHT22;57543;45.442;9.212;2023-04-03T06:23:31;13.72;59.12
70170;DHT22;57543;45.442;9.212;2023-04-03T06:26:36;13.87;58.31
70170;DHT22;57543;45.442;9.212;2023-04-03T06:29:39;14.03;57.69
70170;DHT22;57543;45.442;9.212;2023-04-03T06:32:43;14.20;57.42
70170;DHT22;57543;45.442;9.212;2023-04-03T06:35:46;14.31;56.64
70170;DHT22;57543;45.442;9.212;2023-04-03T06:38:50;14.26;54.73
70170;DHT22;57543;45.442;9.212;2023-04-03T06:41:55;14.15;54.75
70170;DHT22;57543;45.442;9.212;2023-04-03T06:45:07;14.35;54.55
70170;DHT22;57543;45.442;9.212;2023-04-03T06:48:10;14.36;53.05
70170;DHT22;57543;45.442;9.212;2023-04-03T06:51:18;14.18;52.53
70170;DHT22;57543;45.442;9.212;2023-04-03T06:54:22;14.21;52.58
70170;DHT22;57543;45.442;9.212;2023-04-03T06:57:26;14.22;52.79
70170;DHT22;57543;45.442;9.212;2023-04-03T07:00:30;14.32;52.34
70170;DHT22;57543;45.442;9.212;2023-04-03T07:03:35;14.45;52.33
70170;DHT22;57543;45.442;9.212;2023-04-03T07:06:39;14.53;52.64
70170;DHT22;57543;45.442;9.212;2023-04-03T07:09:43;14.46;51.81
70170;DHT22;57543;45.442;9.212;2023-04-03T07:12:47;14.56;51.90
70170;DHT22;57543;45.442;9.212;2023-04-03T07:15:51;14.65;51.86
70170;DHT22;57543;45.442;9.212;2023-04-03T07:18:54;14.66;52.12
70170;DHT22;57543;45.442;9.212;2023-04-03T07:21:58;14.81;52.06
70170;DHT22;57543;45.442;9.212;2023-04-03T07:25:02;15.03;52.38
70170;DHT22;57543;45.442;9.212;2023-04-03T07:28:05;15.27;52.24
70170;DHT22;57543;45.442;9.212;2023-04-03T07:31:12;15.22;51.41
70170;DHT22;57543;45.442;9.212;2023-04-03T07:34:16;15.41;50.69
70170;DHT22;57543;45.442;9.212;2023-04-03T07:37:20;15.58;50.63
70170;DHT22;57543;45.442;9.212;2023-04-03T07:40:24;15.80;51.08
70170;DHT22;57543;45.442;9.212;2023-04-03T07:43:28;15.98;50.17
70170;DHT22;57543;45.442;9.212;2023-04-03T07:46:32;16.04;49.75
70170;DHT22;57543;45.442;9.212;2023-04-03T07:49:35;16.11;49.69
70170;DHT22;57543;45.442;9.212;2023-04-03T07:52:42;16.25;50.16
70170;DHT22;57543;45.442;9.212;2023-04-03T07:55:47;16.45;49.54
70170;DHT22;57543;45.442;9.212;2023-04-03T07:58:52;16.56;49.41
70170;DHT22;57543;45.442;9.212;2023-04-03T08:01:56;16.67;50.33
70170;DHT22;57543;45.442;9.212;2023-04-03T08:05:00;16.84;49.91
70170;DHT22;57543;45.442;9.212;2023-04-03T08:08:04;17.04;49.97
70170;DHT22;57543;45.442;9.212;2023-04-03T08:11:10;17.14;48.69
70170;DHT22;57543;45.442;9.212;2023-04-03T08:14:14;17.01;48.71
70170;DHT22;57543;45.442;9.212;2023-04-03T08:17:21;17.18;49.12
70170;DHT22;57543;45.442;9.212;2023-04-03T08:20:25;17.03;48.72
70170;DHT22;57543;45.442;9.212;2023-04-03T08:23:29;17.14;48.85
70170;DHT22;57543;45.442;9.212;2023-04-03T08:26:33;17.55;48.56
70170;DHT22;57543;45.442;9.212;2023-04-03T08:29:37;17.52;48.72
70170;DHT22;57543;45.442;9.212;2023-04-03T08:32:41;17.79;48.16
70170;DHT22;57543;45.442;9.212;2023-04-03T08:35:48;17.80;48.18
70170;DHT22;57543;45.442;9.212;2023-04-03T08:38:52;18.07;47.61
70170;DHT22;57543;45.442;9.212;2023-04-03T08:41:58;18.12;47.56
70170;DHT22;57543;45.442;9.212;2023-04-03T08:45:19;18.22;47.62
70170;DHT22;57543;45.442;9.212;2023-04-03T08:48:31;18.39;47.33
70170;DHT22;57543;45.442;9.212;2023-04-03T08:51:38;18.59;47.00
70170;DHT22;57543;45.442;9.212;2023-04-03T08:54:56;18.90;46.54
70170;DHT22;57543;45.442;9.212;2023-04-03T08:58:06;18.77;46.92
70170;DHT22;57543;45.442;9.212;2023-04-03T09:01:20;18.66;47.01
70170;DHT22;57543;45.442;9.212;2023-04-03T09:04:26;18.88;46.83
70170;DHT22;57543;45.442;9.212;2023-04-03T09:07:43;19.01;46.91
70170;DHT22;57543;45.442;9.212;2023-04-03T09:10:48;19.22;46.84
70170;DHT22;57543;45.442;9.212;2023-04-03T09:14:21;19.10;47.38
70170;DHT22;57543;45.442;9.212;2023-04-03T09:17:46;18.67;47.44
70170;DHT22;57543;45.442;9.212;2023-04-03T09:21:08;19.05;48.02
70170;DHT22;57543;45.442;9.212;2023-04-03T09:24:16;19.34;46.67
70170;DHT22;57543;45.442;9.212;2023-04-03T09:27:20;19.46;46.79
70170;DHT22;57543;45.442;9.212;2023-04-03T09:30:25;19.46;46.22
70170;DHT22;57543;45.442;9.212;2023-04-03T09:33:29;19.71;45.91
70170;DHT22;57543;45.442;9.212;2023-04-03T09:36:38;19.93;45.75
70170;DHT22;57543;45.442;9.212;2023-04-03T09:39:53;20.22;45.91
70170;DHT22;57543;45.442;9.212;2023-04-03T09:42:59;20.17;44.52
70170;DHT22;57543;45.442;9.212;2023-04-03T09:46:32;20.24;44.48
70170;DHT22;57543;45.442;9.212;2023-04-03T09:49:36;20.29;45.11
70170;DHT22;57543;45.442;9.212;2023-04-03T09:52:41;20.38;44.42
70170;DHT22;57543;45.442;9.212;2023-04-03T09:55:45;20.59;43.76
70170;DHT22;57543;45.442;9.212;2023-04-03T10:02:19;20.32;44.59
70170;DHT22;57543;45.442;9.212;2023-04-03T10:05:36;20.22;44.01
70170;DHT22;57543;45.442;9.212;2023-04-03T10:08:40;20.32;44.05
70170;DHT22;57543;45.442;9.212;2023-04-03T10:12:03;20.33;44.86
70170;DHT22;57543;45.442;9.212;2023-04-03T10:15:13;20.21;44.51
70170;DHT22;57543;45.442;9.212;2023-04-03T10:18:42;20.55;44.04
70170;DHT22;57543;45.442;9.212;2023-04-03T10:21:57;20.81;43.77
70170;DHT22;57543;45.442;9.212;2023-04-03T10:25:07;20.88;43.56
70170;DHT22;57543;45.442;9.212;2023-04-03T10:38:59;20.52;44.11
70170;DHT22;57543;45.442;9.212;2023-04-03T10:42:15;20.77;43.25
70170;DHT22;57543;45.442;9.212;2023-04-03T10:45:26;20.88;43.36
70170;DHT22;57543;45.442;9.212;2023-04-03T10:48:44;21.14;43.72
70170;DHT22;57543;45.442;9.212;2023-04-03T10:52:02;21.21;42.90
70170;DHT22;57543;45.442;9.212;2023-04-03T10:58:36;21.38;43.01
70170;DHT22;57543;45.442;9.212;2023-04-03T11:01:44;21.46;42.57
70170;DHT22;57543;45.442;9.212;2023-04-03T11:04:52;21.94;42.42
70170;DHT22;57543;45.442;9.212;2023-04-03T11:07:57;21.90;41.56
70170;DHT22;57543;45.442;9.212;2023-04-03T11:11:19;22.11;40.87
70170;DHT22;57543;45.442;9.212;2023-04-03T11:14:28;22.44;40.36
70170;DHT22;57543;45.442;9.212;2023-04-03T11:17:48;23.04;39.04
70170;DHT22;57543;45.442;9.212;2023-04-03T11:21:14;24.03;37.78
70170;DHT22;57543;45.442;9.212;2023-04-03T11:24:25;24.94;35.63
70170;DHT22;57543;45.442;9.212;2023-04-03T11:27:35;25.87;34.34
70170;DHT22;57543;45.442;9.212;2023-04-03T11:31:07;26.78;33.27
70170;DHT22;57543;45.442;9.212;2023-04-03T11:34:31;27.73;31.01
70170;DHT22;57543;45.442;9.212;2023-04-03T11:37:52;28.69;29.78
70170;DHT22;57543;45.442;9.212;2023-04-03T11:40:58;27.35;31.98
70170;DHT22;57543;45.442;9.212;2023-04-03T11:44:28;27.38;31.75
70170;DHT22;57543;45.442;9.212;2023-04-03T11:48:03;26.99;31.93
70170;DHT22;57543;45.442;9.212;2023-04-03T12:01:08;25.77;32.51
70170;DHT22;57543;45.442;9.212;2023-04-03T12:04:14;25.79;32.99
70170;DHT22;57543;45.442;9.212;2023-04-03T12:07:18;25.06;34.32
70170;DHT22;57543;45.442;9.212;2023-04-03T12:10:23;24.73;33.25
70170;DHT22;57543;45.442;9.212;2023-04-03T12:13:26;23.92;33.74
70170;DHT22;57543;45.442;9.212;2023-04-03T12:19:40;23.93;34.24
70170;DHT22;57543;45.442;9.212;2023-04-03T12:26:31;23.56;33.88
70170;DHT22;57543;45.442;9.212;2023-04-03T12:29:40;23.55;34.68
70170;DHT22;57543;45.442;9.212;2023-04-03T12:33:13;23.52;34.98
70170;DHT22;57543;45.442;9.212;2023-04-03T12:39:51;23.15;36.27
70170;DHT22;57543;45.442;9.212;2023-04-03T12:46:21;23.07;35.47
70170;DHT22;57543;45.442;9.212;2023-04-03T12:52:37;22.70;36.34
70170;DHT22;57543;45.442;9.212;2023-04-03T12:55:43;22.60;37.28
70170;DHT22;57543;45.442;9.212;2023-04-03T12:58:48;22.18;37.57
70170;DHT22;57543;45.442;9.212;2023-04-03T13:02:00;22.45;37.66
70170;DHT22;57543;45.442;9.212;2023-04-03T13:05:07;22.08;37.47
70170;DHT22;57543;45.442;9.212;2023-04-03T13:08:13;22.34;37.70
70170;DHT22;57543;45.442;9.212;2023-04-03T13:11:20;22.19;37.24
70170;DHT22;57543;45.442;9.212;2023-04-03T13:14:26;22.38;37.46
70170;DHT22;57543;45.442;9.212;2023-04-03T13:17:31;22.69;36.82
70170;DHT22;57543;45.442;9.212;2023-04-03T13:20:36;22.19;37.33
70170;DHT22;57543;45.442;9.212;2023-04-03T13:23:44;22.39;37.10
70170;DHT22;57543;45.442;9.212;2023-04-03T13:26:48;22.60;36.68
70170;DHT22;57543;45.442;9.212;2023-04-03T13:29:57;22.80;36.35
70170;DHT22;57543;45.442;9.212;2023-04-03T13:33:04;22.45;36.09
70170;DHT22;57543;45.442;9.212;2023-04-03T13:36:19;22.12;36.12
70170;DHT22;57543;45.442;9.212;2023-04-03T13:39:29;22.51;36.13
70170;DHT22;57543;45.442;9.212;2023-04-03T13:42:37;22.41;36.09
70170;DHT22;57543;45.442;9.212;2023-04-03T13:45:57;22.38;35.84
70170;DHT22;57543;45.442;9.212;2023-04-03T13:49:20;22.41;36.45
70170;DHT22;57543;45.442;9.212;2023-04-03T13:52:33;22.66;36.59
70170;DHT22;57543;45.442;9.212;2023-04-03T14:02:29;22.79;36.32
70170;DHT22;57543;45.442;9.212;2023-04-03T14:05:33;22.93;35.42
70170;DHT22;57543;45.442;9.212;2023-04-03T14:08:37;22.79;35.31
70170;DHT22;57543;45.442;9.212;2023-04-03T14:11:41;22.55;36.11
70170;DHT22;57543;45.442;9.212;2023-04-03T14:14:45;22.62;36.41
70170;DHT22;57543;45.442;9.212;2023-04-03T14:17:50;22.57;36.05
70170;DHT22;57543;45.442;9.212;2023-04-03T14:20:57;22.31;37.16
70170;DHT22;57543;45.442;9.212;2023-04-03T14:24:01;22.48;37.17
70170;DHT22;57543;45.442;9.212;2023-04-03T14:27:11;22.21;37.84
70170;DHT22;57543;45.442;9.212;2023-04-03T14:30:28;22.19;37.62
70170;DHT22;57543;45.442;9.212;2023-04-03T14:33:32;22.57;37.35
70170;DHT22;57543;45.442;9.212;2023-04-03T14:36:39;22.69;37.58
70170;DHT22;57543;45.442;9.212;2023-04-03T14:39:45;22.36;37.87
70170;DHT22;57543;45.442;9.212;2023-04-03T14:42:49;21.87;38.87
70170;DHT22;57543;45.442;9.212;2023-04-03T14:45:53;21.86;38.47
70170;DHT22;57543;45.442;9.212;2023-04-03T14:48:57;21.80;38.72
70170;DHT22;57543;45.442;9.212;2023-04-03T14:52:00;21.57;38.78
70170;DHT22;57543;45.442;9.212;2023-04-03T14:55:07;21.35;38.92
70170;DHT22;57543;45.442;9.212;2023-04-03T14:58:13;20.65;39.97
70170;DHT22;57543;45.442;9.212;2023-04-03T15:01:17;20.63;39.83
70170;DHT22;57543;45.442;9.212;2023-04-03T15:04:22;20.42;40.03
70170;DHT22;57543;45.442;9.212;2023-04-03T15:07:27;20.20;40.23
70170;DHT22;57543;45.442;9.212;2023-04-03T15:10:31;19.69;40.76
70170;DHT22;57543;45.442;9.212;2023-04-03T15:13:36;19.77;40.97
70170;DHT22;57543;45.442;9.212;2023-04-03T15:16:40;19.60;41.05
70170;DHT22;57543;45.442;9.212;2023-04-03T15:19:44;19.45;41.27
70170;DHT22;57543;45.442;9.212;2023-04-03T15:22:48;19.41;41.47
70170;DHT22;57543;45.442;9.212;2023-04-03T15:25:53;19.29;41.63
70170;DHT22;57543;45.442;9.212;2023-04-03T15:28:57;19.17;41.97
70170;DHT22;57543;45.442;9.212;2023-04-03T15:32:01;19.14;41.79
70170;DHT22;57543;45.442;9.212;2023-04-03T15:35:17;19.00;41.81
70170;DHT22;57543;45.442;9.212;2023-04-03T15:38:21;19.08;41.77
70170;DHT22;57543;45.442;9.212;2023-04-03T15:41:25;18.77;41.83
70170;DHT22;57543;45.442;9.212;2023-04-03T15:44:29;18.83;42.08
70170;DHT22;57543;45.442;9.212;2023-04-03T15:47:32;18.76;41.89
70170;DHT22;57543;45.442;9.212;2023-04-03T15:50:37;18.67;41.70
70170;DHT22;57543;45.442;9.212;2023-04-03T15:53:40;18.46;42.20
70170;DHT22;57543;45.442;9.212;2023-04-03T15:56:44;18.32;42.16
70170;DHT22;57543;45.442;9.212;2023-04-03T15:59:48;18.42;41.95
70170;DHT22;57543;45.442;9.212;2023-04-03T16:02:54;18.52;41.62
70170;DHT22;57543;45.442;9.212;2023-04-03T16:05:58;18.57;41.36
70170;DHT22;57543;45.442;9.212;2023-04-03T16:09:03;18.36;41.39
70170;DHT22;57543;45.442;9.212;2023-04-03T16:12:07;18.21;41.56
70170;DHT22;57543;45.442;9.212;2023-04-03T16:15:11;18.07;41.78
70170;DHT22;57543;45.442;9.212;2023-04-03T16:18:14;18.12;41.69
70170;DHT22;57543;45.442;9.212;2023-04-03T16:21:18;18.08;42.08
70170;DHT22;57543;45.442;9.212;2023-04-03T16:24:21;18.04;42.44
70170;DHT22;57543;45.442;9.212;2023-04-03T16:27:25;17.91;42.64
70170;DHT22;57543;45.442;9.212;2023-04-03T16:30:34;17.83;43.49
70170;DHT22;57543;45.442;9.212;2023-04-03T16:33:37;17.87;42.43
70170;DHT22;57543;45.442;9.212;2023-04-03T16:36:41;17.81;42.70
70170;DHT22;57543;45.442;9.212;2023-04-03T16:39:45;17.35;43.20
70170;DHT22;57543;45.442;9.212;2023-04-03T16:42:49;17.31;44.77
70170;DHT22;57543;45.442;9.212;2023-04-03T16:45:52;17.21;43.52
70170;DHT22;57543;45.442;9.212;2023-04-03T16:48:56;17.34;42.87
70170;DHT22;57543;45.442;9.212;2023-04-03T16:52:04;17.15;43.40
70170;DHT22;57543;45.442;9.212;2023-04-03T16:55:08;16.99;43.40
70170;DHT22;57543;45.442;9.212;2023-04-03T16:58:12;16.93;43.49
70170;DHT22;57543;45.442;9.212;2023-04-03T17:01:18;16.72;43.90
70170;DHT22;57543;45.442;9.212;2023-04-03T17:04:21;16.66;44.34
70170;DHT22;57543;45.442;9.212;2023-04-03T17:07:25;16.77;43.48
70170;DHT22;57543;45.442;9.212;2023-04-03T17:10:29;16.87;43.32
70170;DHT22;57543;45.442;9.212;2023-04-03T17:13:33;16.94;42.87
70170;DHT22;57543;45.442;9.212;2023-04-03T17:16:37;16.97;43.06
70170;DHT22;57543;45.442;9.212;2023-04-03T17:19:41;16.81;43.12
70170;DHT22;57543;45.442;9.212;2023-04-03T17:22:45;16.83;42.68
70170;DHT22;57543;45.442;9.212;2023-04-03T17:25:49;16.57;42.88
70170;DHT22;57543;45.442;9.212;2023-04-03T17:28:53;16.48;43.16
70170;DHT22;57543;45.442;9.212;2023-04-03T17:31:57;16.36;43.29
70170;DHT22;57543;45.442;9.212;2023-04-03T17:35:00;16.66;43.39
70170;DHT22;57543;45.442;9.212;2023-04-03T17:38:04;16.69;43.41
70170;DHT22;57543;45.442;9.212;2023-04-03T17:41:08;16.56;43.38
70170;DHT22;57543;45.442;9.212;2023-04-03T17:44:12;16.33;43.56
70170;DHT22;57543;45.442;9.212;2023-04-03T17:47:15;16.32;43.45
70170;DHT22;57543;45.442;9.212;2023-04-03T17:50:19;16.38;43.55
70170;DHT22;57543;45.442;9.212;2023-04-03T17:53:23;16.26;43.40
70170;DHT22;57543;45.442;9.212;2023-04-03T17:56:27;16.33;43.56
70170;DHT22;57543;45.442;9.212;2023-04-03T17:59:31;16.38;43.69
70170;DHT22;57543;45.442;9.212;2023-04-03T18:02:34;16.42;43.37
70170;DHT22;57543;45.442;9.212;2023-04-03T18:05:38;16.36;43.53
70170;DHT22;57543;45.442;9.212;2023-04-03T18:08:46;16.26;43.81
70170;DHT22;57543;45.442;9.212;2023-04-03T18:11:51;16.32;43.51
70170;DHT22;57543;45.442;9.212;2023-04-03T18:14:57;16.31;43.64
70170;DHT22;57543;45.442;9.212;2023-04-03T18:18:01;16.42;43.42
70170;DHT22;57543;45.442;9.212;2023-04-03T18:21:07;16.33;43.29
70170;DHT22;57543;45.442;9.212;2023-04-03T18:24:13;16.04;43.91
70170;DHT22;57543;45.442;9.212;2023-04-03T18:27:22;16.08;43.91
70170;DHT22;57543;45.442;9.212;2023-04-03T18:30:27;16.08;43.96
70170;DHT22;57543;45.442;9.212;2023-04-03T18:33:31;16.11;43.96
70170;DHT22;57543;45.442;9.212;2023-04-03T18:36:36;16.21;43.93
70170;DHT22;57543;45.442;9.212;2023-04-03T18:39:40;16.01;43.84
70170;DHT22;57543;45.442;9.212;2023-04-03T18:42:44;15.83;44.15
70170;DHT22;57543;45.442;9.212;2023-04-03T18:45:47;15.71;44.18
70170;DHT22;57543;45.442;9.212;2023-04-03T18:48:53;15.56;44.40
70170;DHT22;57543;45.442;9.212;2023-04-03T18:51:56;15.48;44.47
70170;DHT22;57543;45.442;9.212;2023-04-03T18:55:00;15.41;44.40
70170;DHT22;57543;45.442;9.212;2023-04-03T18:58:04;15.34;44.29
70170;DHT22;57543;45.442;9.212;2023-04-03T19:01:08;15.46;43.97
70170;DHT22;57543;45.442;9.212;2023-04-03T19:04:13;15.14;43.86
70170;DHT22;57543;45.442;9.212;2023-04-03T19:07:19;15.04;44.50
70170;DHT22;57543;45.442;9.212;2023-04-03T19:10:23;15.05;44.34
70170;DHT22;57543;45.442;9.212;2023-04-03T19:13:26;15.12;43.68
70170;DHT22;57543;45.442;9.212;2023-04-03T19:16:30;14.94;43.58
70170;DHT22;57543;45.442;9.212;2023-04-03T19:19:35;14.84;43.59
70170;DHT22;57543;45.442;9.212;2023-04-03T19:22:40;14.90;43.39
70170;DHT22;57543;45.442;9.212;2023-04-03T19:25:43;14.83;43.18
70170;DHT22;57543;45.442;9.212;2023-04-03T19:28:47;14.80;43.30
70170;DHT22;57543;45.442;9.212;2023-04-03T19:31:53;14.93;43.08
70170;DHT22;57543;45.442;9.212;2023-04-03T19:34:57;14.83;42.80
70170;DHT22;57543;45.442;9.212;2023-04-03T19:38:01;14.87;42.91
70170;DHT22;57543;45.442;9.212;2023-04-03T19:41:26;14.77;42.95
70170;DHT22;57543;45.442;9.212;2023-04-03T19:44:31;14.72;42.91
70170;DHT22;57543;45.442;9.212;2023-04-03T19:47:37;14.75;42.76
70170;DHT22;57543;45.442;9.212;2023-04-03T19:50:41;14.55;42.82
70170;DHT22;57543;45.442;9.212;2023-04-03T19:53:44;14.49;43.01
70170;DHT22;57543;45.442;9.212;2023-04-03T19:56:49;14.49;43.14
70170;DHT22;57543;45.442;9.212;2023-04-03T19:59:53;14.38;43.25
70170;DHT22;57543;45.442;9.212;2023-04-03T20:02:57;14.34;43.25
70170;DHT22;57543;45.442;9.212;2023-04-03T20:06:01;14.46;42.80
70170;DHT22;57543;45.442;9.212;2023-04-03T20:09:05;14.29;43.03
70170;DHT22;57543;45.442;9.212;2023-04-03T20:12:09;14.26;42.93
70170;DHT22;57543;45.442;9.212;2023-04-03T20:15:12;14.38;42.96
70170;DHT22;57543;45.442;9.212;2023-04-03T20:18:18;14.49;43.17
70170;DHT22;57543;45.442;9.212;2023-04-03T20:21:27;14.32;42.84
70170;DHT22;57543;45.442;9.212;2023-04-03T20:24:31;14.36;42.88
70170;DHT22;57543;45.442;9.212;2023-04-03T20:27:35;14.45;42.70
70170;DHT22;57543;45.442;9.212;2023-04-03T20:30:41;14.28;42.47
70170;DHT22;57543;45.442;9.212;2023-04-03T20:33:45;14.38;41.99